Portada
METAR-TAF:

METAR-TAF

Aeropuertos :

Aeropuerto de Homer

Homer, Alaska, Estados Unidos

latitud: 59-39N, longitud: 151-29W, altitud: 26 m

Observación

El informe se hizo hace 40 minutos, a las 04:53 UTC
Viento 6 kt del suroeste
Temperatura 18°C
Humedad 49%
Presión 1019 hPa
Visibilidad: 16.1 km
Cielo despejado

METAR: PAHO 160453Z 23006KT 10SM CLR 18/07 A3009 RMK AO2 SLP188 T01830072

Hora: 21:33 (05:33 UTC)

Pronóstico

El informe se hizo hace 2 horas y 33 minutos, a las 03:00 UTC
Pronóstico válido del 16 a las 03 UTC al 16 a las 24 UTC
Viento 15 kt del oeste-suroeste
Visibilidad: 10 km
Cielo nuboso a una altura de 12000 ft
A partir de las 16 a las 0600 UTC
Viento 4 kt del noreste
Visibilidad: 10 km
Escasas nubes a una altura de 5000 ft

TAF: PAHO 160300Z 1603/1624 25015KT P6SM BKN120 FM160600 04004KT P6SM FEW050

Observaciones y pronósticos meteorológicos de más de 4000 aeropuertos (mensajes METAR y TAF).

Los puntos amarillos y rojos representan las estaciones disponibles.

Ponga el ratón en el punto deseado para ver el nombre de la estación.

Haga clic para ver las observaciones y los pronósticos meteorológicos.

Para cambiar el mapa : haga clic en los botones verdes con una cruz de color negro para hacer un zoom, en el botón verde con un guión para alejar o en las flechas verdes para mapas adyacentes.


METAR-TAF: